sensor_id;sensor_type;location;lat;lon;timestamp;pressure;altitude;pressure_sealevel;temperature;humidity
3444;BME280;1736;52.068;6.968;2023-06-10T00:00:44;101010.56;;;20.55;51.70
3444;BME280;1736;52.068;6.968;2023-06-10T00:03:11;101005.34;;;20.53;51.91
3444;BME280;1736;52.068;6.968;2023-06-10T00:05:38;101006.91;;;20.48;51.75
3444;BME280;1736;52.068;6.968;2023-06-10T00:08:05;101006.63;;;20.43;52.25
3444;BME280;1736;52.068;6.968;2023-06-10T00:10:33;101005.25;;;20.47;52.35
3444;BME280;1736;52.068;6.968;2023-06-10T00:13:00;101013.13;;;20.34;53.02
3444;BME280;1736;52.068;6.968;2023-06-10T00:15:29;101009.69;;;20.40;52.82
3444;BME280;1736;52.068;6.968;2023-06-10T00:17:55;101002.28;;;20.42;53.07
3444;BME280;1736;52.068;6.968;2023-06-10T00:20:22;101007.84;;;20.40;53.08
3444;BME280;1736;52.068;6.968;2023-06-10T00:22:50;101009.97;;;20.30;53.66
3444;BME280;1736;52.068;6.968;2023-06-10T00:25:17;101004.44;;;20.24;54.00
3444;BME280;1736;52.068;6.968;2023-06-10T00:27:44;101005.94;;;20.12;54.56
3444;BME280;1736;52.068;6.968;2023-06-10T00:30:11;100995.84;;;20.06;54.83
3444;BME280;1736;52.068;6.968;2023-06-10T00:32:39;101007.16;;;20.01;55.19
3444;BME280;1736;52.068;6.968;2023-06-10T00:35:06;101006.97;;;20.02;55.34
3444;BME280;1736;52.068;6.968;2023-06-10T00:37:33;101011.78;;;19.92;55.78
3444;BME280;1736;52.068;6.968;2023-06-10T00:40:02;101008.91;;;19.94;55.95
3444;BME280;1736;52.068;6.968;2023-06-10T00:42:28;101003.03;;;19.90;56.19
3444;BME280;1736;52.068;6.968;2023-06-10T00:44:55;101007.94;;;19.87;56.52
3444;BME280;1736;52.068;6.968;2023-06-10T00:47:22;101011.56;;;19.79;56.66
3444;BME280;1736;52.068;6.968;2023-06-10T00:49:50;101008.00;;;19.79;56.82
3444;BME280;1736;52.068;6.968;2023-06-10T00:52:18;101016.63;;;19.74;57.15
3444;BME280;1736;52.068;6.968;2023-06-10T00:54:46;101016.31;;;19.69;57.50
3444;BME280;1736;52.068;6.968;2023-06-10T00:57:12;101008.97;;;19.63;57.75
3444;BME280;1736;52.068;6.968;2023-06-10T00:59:39;101014.34;;;19.63;58.03
3444;BME280;1736;52.068;6.968;2023-06-10T01:02:06;101009.66;;;19.57;58.14
3444;BME280;1736;52.068;6.968;2023-06-10T01:04:34;101022.09;;;19.58;58.35
3444;BME280;1736;52.068;6.968;2023-06-10T01:07:11;101010.41;;;19.51;58.72
3444;BME280;1736;52.068;6.968;2023-06-10T01:09:46;101008.91;;;19.49;58.81
3444;BME280;1736;52.068;6.968;2023-06-10T01:12:22;101016.34;;;19.39;59.34
3444;BME280;1736;52.068;6.968;2023-06-10T01:14:53;101018.91;;;19.32;59.66
3444;BME280;1736;52.068;6.968;2023-06-10T01:17:20;101015.38;;;19.32;59.95
3444;BME280;1736;52.068;6.968;2023-06-10T01:19:53;101020.44;;;19.27;60.08
3444;BME280;1736;52.068;6.968;2023-06-10T01:22:23;101019.97;;;19.23;60.44
3444;BME280;1736;52.068;6.968;2023-06-10T01:24:51;101015.06;;;19.19;60.66
3444;BME280;1736;52.068;6.968;2023-06-10T01:27:19;101020.63;;;19.25;60.38
3444;BME280;1736;52.068;6.968;2023-06-10T01:29:58;101025.84;;;19.19;60.78
3444;BME280;1736;52.068;6.968;2023-06-10T01:32:32;101030.91;;;19.14;61.14
3444;BME280;1736;52.068;6.968;2023-06-10T01:35:02;101025.69;;;19.12;61.32
3444;BME280;1736;52.068;6.968;2023-06-10T01:37:31;101020.16;;;19.14;61.08
3444;BME280;1736;52.068;6.968;2023-06-10T01:40:00;101023.88;;;19.05;61.42
3444;BME280;1736;52.068;6.968;2023-06-10T01:42:29;101022.72;;;18.99;61.67
3444;BME280;1736;52.068;6.968;2023-06-10T01:44:55;101023.78;;;18.90;62.02
3444;BME280;1736;52.068;6.968;2023-06-10T01:47:22;101015.75;;;18.82;62.36
3444;BME280;1736;52.068;6.968;2023-06-10T01:49:49;101019.06;;;18.92;62.53
3444;BME280;1736;52.068;6.968;2023-06-10T01:52:16;101017.44;;;18.75;62.59
3444;BME280;1736;52.068;6.968;2023-06-10T01:54:44;101017.41;;;18.83;62.63
3444;BME280;1736;52.068;6.968;2023-06-10T01:57:10;101025.81;;;18.80;62.64
3444;BME280;1736;52.068;6.968;2023-06-10T01:59:37;101024.00;;;18.73;63.05
3444;BME280;1736;52.068;6.968;2023-06-10T02:02:04;101016.25;;;18.78;63.19
3444;BME280;1736;52.068;6.968;2023-06-10T02:04:31;101026.53;;;18.66;63.57
3444;BME280;1736;52.068;6.968;2023-06-10T02:06:57;101031.59;;;18.61;63.77
3444;BME280;1736;52.068;6.968;2023-06-10T02:09:24;101025.53;;;18.59;64.06
3444;BME280;1736;52.068;6.968;2023-06-10T02:11:52;101026.38;;;18.60;64.00
3444;BME280;1736;52.068;6.968;2023-06-10T02:14:19;101022.88;;;18.51;64.32
3444;BME280;1736;52.068;6.968;2023-06-10T02:16:46;101020.19;;;18.43;64.89
3444;BME280;1736;52.068;6.968;2023-06-10T02:19:13;101025.72;;;18.42;65.22
3444;BME280;1736;52.068;6.968;2023-06-10T02:21:39;101032.13;;;18.49;64.87
3444;BME280;1736;52.068;6.968;2023-06-10T02:24:07;101031.78;;;18.52;64.96
3444;BME280;1736;52.068;6.968;2023-06-10T02:26:33;101036.66;;;18.40;65.50
3444;BME280;1736;52.068;6.968;2023-06-10T02:29:01;101035.81;;;18.32;65.96
3444;BME280;1736;52.068;6.968;2023-06-10T02:31:28;101035.63;;;18.33;65.84
3444;BME280;1736;52.068;6.968;2023-06-10T02:33:55;101034.66;;;18.42;65.86
3444;BME280;1736;52.068;6.968;2023-06-10T02:36:22;101041.34;;;18.30;66.31
3444;BME280;1736;52.068;6.968;2023-06-10T02:38:49;101033.44;;;18.29;66.71
3444;BME280;1736;52.068;6.968;2023-06-10T02:48:01;101039.34;;;18.16;67.50
3444;BME280;1736;52.068;6.968;2023-06-10T02:50:27;101043.19;;;18.06;67.82
3444;BME280;1736;52.068;6.968;2023-06-10T02:52:54;101037.81;;;18.14;67.97
3444;BME280;1736;52.068;6.968;2023-06-10T02:55:21;101035.97;;;17.98;68.52
3444;BME280;1736;52.068;6.968;2023-06-10T02:57:51;101033.28;;;17.90;68.87
3444;BME280;1736;52.068;6.968;2023-06-10T03:00:18;101032.78;;;17.87;69.37
3444;BME280;1736;52.068;6.968;2023-06-10T03:02:45;101031.25;;;17.76;69.33
3444;BME280;1736;52.068;6.968;2023-06-10T03:05:14;101033.59;;;17.87;69.16
3444;BME280;1736;52.068;6.968;2023-06-10T03:07:42;101036.47;;;17.70;69.66
3444;BME280;1736;52.068;6.968;2023-06-10T03:10:09;101031.25;;;17.76;69.68
3444;BME280;1736;52.068;6.968;2023-06-10T03:12:35;101036.47;;;17.70;69.85
3444;BME280;1736;52.068;6.968;2023-06-10T03:15:02;101050.50;;;17.56;70.17
3444;BME280;1736;52.068;6.968;2023-06-10T03:17:30;101046.63;;;17.50;70.54
3444;BME280;1736;52.068;6.968;2023-06-10T03:19:56;101036.88;;;17.41;71.34
3444;BME280;1736;52.068;6.968;2023-06-10T03:22:24;101037.69;;;17.34;71.66
3444;BME280;1736;52.068;6.968;2023-06-10T03:24:51;101042.50;;;17.30;71.89
3444;BME280;1736;52.068;6.968;2023-06-10T03:27:18;101050.91;;;17.27;71.89
3444;BME280;1736;52.068;6.968;2023-06-10T03:29:45;101053.94;;;17.32;71.93
3444;BME280;1736;52.068;6.968;2023-06-10T03:32:11;101044.03;;;17.25;72.29
3444;BME280;1736;52.068;6.968;2023-06-10T03:34:38;101060.94;;;17.25;72.33
3444;BME280;1736;52.068;6.968;2023-06-10T03:37:05;101058.06;;;17.19;72.64
3444;BME280;1736;52.068;6.968;2023-06-10T03:39:33;101056.25;;;17.27;72.46
3444;BME280;1736;52.068;6.968;2023-06-10T03:44:30;101063.97;;;17.30;72.45
3444;BME280;1736;52.068;6.968;2023-06-10T03:46:56;101072.50;;;17.26;72.74
3444;BME280;1736;52.068;6.968;2023-06-10T03:49:25;101071.03;;;17.31;72.76
3444;BME280;1736;52.068;6.968;2023-06-10T03:51:54;101068.84;;;17.35;72.30
3444;BME280;1736;52.068;6.968;2023-06-10T03:54:20;101068.97;;;17.25;72.79
3444;BME280;1736;52.068;6.968;2023-06-10T03:56:48;101067.97;;;17.26;72.79
3444;BME280;1736;52.068;6.968;2023-06-10T03:59:15;101064.16;;;17.29;72.70
3444;BME280;1736;52.068;6.968;2023-06-10T04:01:42;101063.63;;;17.25;72.63
3444;BME280;1736;52.068;6.968;2023-06-10T04:04:11;101065.66;;;17.31;72.75
3444;BME280;1736;52.068;6.968;2023-06-10T04:06:37;101060.97;;;17.33;72.70
3444;BME280;1736;52.068;6.968;2023-06-10T04:09:04;101061.66;;;17.35;72.53
3444;BME280;1736;52.068;6.968;2023-06-10T04:11:30;101063.56;;;17.43;72.48
3444;BME280;1736;52.068;6.968;2023-06-10T04:13:58;101069.06;;;17.41;72.40
3444;BME280;1736;52.068;6.968;2023-06-10T04:16:25;101068.94;;;17.51;71.93
3444;BME280;1736;52.068;6.968;2023-06-10T04:18:52;101067.09;;;17.43;72.27
3444;BME280;1736;52.068;6.968;2023-06-10T04:21:18;101069.41;;;17.46;72.25
3444;BME280;1736;52.068;6.968;2023-06-10T04:23:45;101067.09;;;17.51;71.82
3444;BME280;1736;52.068;6.968;2023-06-10T04:26:12;101072.97;;;17.47;72.36
3444;BME280;1736;52.068;6.968;2023-06-10T04:28:38;101073.31;;;17.60;71.95
3444;BME280;1736;52.068;6.968;2023-06-10T04:31:06;101085.47;;;17.88;70.85
3444;BME280;1736;52.068;6.968;2023-06-10T04:33:33;101079.28;;;18.11;69.80
3444;BME280;1736;52.068;6.968;2023-06-10T04:36:00;101083.66;;;18.36;68.53
3444;BME280;1736;52.068;6.968;2023-06-10T04:38:26;101083.50;;;18.62;68.06
3444;BME280;1736;52.068;6.968;2023-06-10T04:40:56;101087.63;;;18.88;66.86
3444;BME280;1736;52.068;6.968;2023-06-10T04:43:23;101083.22;;;19.11;65.58
3444;BME280;1736;52.068;6.968;2023-06-10T04:45:49;101082.31;;;19.19;65.00
3444;BME280;1736;52.068;6.968;2023-06-10T04:48:18;101090.38;;;19.65;64.20
3444;BME280;1736;52.068;6.968;2023-06-10T04:50:44;101094.94;;;19.65;63.11
3444;BME280;1736;52.068;6.968;2023-06-10T04:53:13;101089.06;;;19.61;62.75
3444;BME280;1736;52.068;6.968;2023-06-10T04:55:41;101092.19;;;20.04;61.78
3444;BME280;1736;52.068;6.968;2023-06-10T04:58:11;101081.03;;;20.07;61.26
3444;BME280;1736;52.068;6.968;2023-06-10T05:00:39;101095.50;;;20.36;60.11
3444;BME280;1736;52.068;6.968;2023-06-10T05:03:07;101096.91;;;20.47;59.60
3444;BME280;1736;52.068;6.968;2023-06-10T05:05:35;101086.34;;;20.60;59.04
3444;BME280;1736;52.068;6.968;2023-06-10T05:08:02;101086.38;;;20.89;57.98
3444;BME280;1736;52.068;6.968;2023-06-10T05:10:31;101095.13;;;20.91;57.97
3444;BME280;1736;52.068;6.968;2023-06-10T05:12:59;101095.91;;;20.62;58.44
3444;BME280;1736;52.068;6.968;2023-06-10T05:15:26;101092.56;;;20.60;58.48
3444;BME280;1736;52.068;6.968;2023-06-10T05:17:52;101091.63;;;21.05;57.21
3444;BME280;1736;52.068;6.968;2023-06-10T05:20:19;101092.03;;;21.02;57.27
3444;BME280;1736;52.068;6.968;2023-06-10T05:22:49;101090.59;;;21.35;56.37
3444;BME280;1736;52.068;6.968;2023-06-10T05:25:18;101095.34;;;21.33;55.71
3444;BME280;1736;52.068;6.968;2023-06-10T05:27:45;101093.09;;;21.51;55.66
3444;BME280;1736;52.068;6.968;2023-06-10T05:30:12;101086.31;;;21.40;55.23
3444;BME280;1736;52.068;6.968;2023-06-10T05:32:38;101095.03;;;21.57;55.37
3444;BME280;1736;52.068;6.968;2023-06-10T05:35:05;101089.94;;;21.33;54.90
3444;BME280;1736;52.068;6.968;2023-06-10T05:37:33;101094.56;;;21.68;54.62
3444;BME280;1736;52.068;6.968;2023-06-10T05:40:01;101094.31;;;21.48;54.98
3444;BME280;1736;52.068;6.968;2023-06-10T05:42:29;101093.75;;;22.03;53.47
3444;BME280;1736;52.068;6.968;2023-06-10T05:44:56;101088.97;;;21.84;53.22
3444;BME280;1736;52.068;6.968;2023-06-10T05:47:22;101093.19;;;22.35;51.98
3444;BME280;1736;52.068;6.968;2023-06-10T05:49:49;101097.66;;;22.63;51.12
3444;BME280;1736;52.068;6.968;2023-06-10T05:52:17;101108.63;;;22.83;50.94
3444;BME280;1736;52.068;6.968;2023-06-10T05:54:43;101099.78;;;22.68;50.58
3444;BME280;1736;52.068;6.968;2023-06-10T05:57:11;101099.66;;;22.55;50.17
3444;BME280;1736;52.068;6.968;2023-06-10T05:59:38;101097.66;;;22.42;50.48
3444;BME280;1736;52.068;6.968;2023-06-10T06:02:05;101099.22;;;22.51;50.52
3444;BME280;1736;52.068;6.968;2023-06-10T06:04:32;101107.63;;;22.63;50.59
3444;BME280;1736;52.068;6.968;2023-06-10T06:06:58;101105.25;;;22.74;49.53
3444;BME280;1736;52.068;6.968;2023-06-10T06:09:25;101106.19;;;22.67;49.50
3444;BME280;1736;52.068;6.968;2023-06-10T06:11:52;101097.25;;;22.45;50.29
3444;BME280;1736;52.068;6.968;2023-06-10T06:14:20;101110.19;;;22.71;49.51
3444;BME280;1736;52.068;6.968;2023-06-10T06:16:46;101109.31;;;22.64;49.67
3444;BME280;1736;52.068;6.968;2023-06-10T06:19:13;101101.25;;;22.49;49.76
3444;BME280;1736;52.068;6.968;2023-06-10T06:21:39;101103.78;;;23.06;48.68
3444;BME280;1736;52.068;6.968;2023-06-10T06:24:06;101106.09;;;23.36;47.99
3444;BME280;1736;52.068;6.968;2023-06-10T06:26:33;101099.09;;;23.55;46.99
3444;BME280;1736;52.068;6.968;2023-06-10T06:29:00;101106.69;;;23.79;46.57
3444;BME280;1736;52.068;6.968;2023-06-10T06:31:28;101113.41;;;23.49;46.90
3444;BME280;1736;52.068;6.968;2023-06-10T06:33:54;101107.88;;;23.63;46.81
3444;BME280;1736;52.068;6.968;2023-06-10T06:36:21;101105.09;;;24.04;46.33
3444;BME280;1736;52.068;6.968;2023-06-10T06:38:47;101111.38;;;23.98;45.49
3444;BME280;1736;52.068;6.968;2023-06-10T06:41:14;101109.25;;;23.93;46.31
3444;BME280;1736;52.068;6.968;2023-06-10T06:43:40;101113.44;;;24.02;45.73
3444;BME280;1736;52.068;6.968;2023-06-10T06:46:08;101112.25;;;24.31;45.14
3444;BME280;1736;52.068;6.968;2023-06-10T06:48:36;101110.66;;;23.83;44.97
3444;BME280;1736;52.068;6.968;2023-06-10T06:51:03;101115.88;;;23.84;44.86
3444;BME280;1736;52.068;6.968;2023-06-10T06:53:29;101112.81;;;24.00;44.00
3444;BME280;1736;52.068;6.968;2023-06-10T06:55:56;101121.50;;;23.83;44.08
3444;BME280;1736;52.068;6.968;2023-06-10T06:58:22;101113.31;;;23.70;44.71
3444;BME280;1736;52.068;6.968;2023-06-10T07:00:49;101115.34;;;24.02;43.98
3444;BME280;1736;52.068;6.968;2023-06-10T07:03:15;101124.75;;;24.13;43.73
3444;BME280;1736;52.068;6.968;2023-06-10T07:05:43;101124.75;;;24.13;42.63
3444;BME280;1736;52.068;6.968;2023-06-10T07:08:10;101125.13;;;23.96;42.66
3444;BME280;1736;52.068;6.968;2023-06-10T07:10:37;101129.31;;;24.12;41.36
3444;BME280;1736;52.068;6.968;2023-06-10T07:13:04;101127.69;;;24.37;41.50
3444;BME280;1736;52.068;6.968;2023-06-10T07:15:30;101125.16;;;24.09;40.55
3444;BME280;1736;52.068;6.968;2023-06-10T07:17:57;101138.06;;;24.07;40.96
3444;BME280;1736;52.068;6.968;2023-06-10T07:20:24;101131.84;;;24.27;40.60
3444;BME280;1736;52.068;6.968;2023-06-10T07:22:52;101131.44;;;24.30;40.42
3444;BME280;1736;52.068;6.968;2023-06-10T07:25:19;101139.00;;;24.60;39.80
3444;BME280;1736;52.068;6.968;2023-06-10T07:27:45;101128.13;;;24.54;38.99
3444;BME280;1736;52.068;6.968;2023-06-10T07:30:12;101130.22;;;24.58;39.26
3444;BME280;1736;52.068;6.968;2023-06-10T07:32:39;101138.81;;;24.68;38.59
3444;BME280;1736;52.068;6.968;2023-06-10T07:35:09;101143.38;;;24.87;37.86
3444;BME280;1736;52.068;6.968;2023-06-10T07:37:36;101125.03;;;24.76;38.46
3444;BME280;1736;52.068;6.968;2023-06-10T07:40:10;101130.84;;;24.99;38.34
3444;BME280;1736;52.068;6.968;2023-06-10T07:42:36;101128.91;;;25.45;38.07
3444;BME280;1736;52.068;6.968;2023-06-10T07:45:04;101133.13;;;25.15;37.58
3444;BME280;1736;52.068;6.968;2023-06-10T07:47:32;101126.91;;;24.82;38.32
3444;BME280;1736;52.068;6.968;2023-06-10T07:50:03;101135.63;;;25.36;37.34
3444;BME280;1736;52.068;6.968;2023-06-10T07:52:30;101128.78;;;25.01;37.52
3444;BME280;1736;52.068;6.968;2023-06-10T07:54:57;101117.47;;;25.30;37.83
3444;BME280;1736;52.068;6.968;2023-06-10T07:57:25;101130.94;;;25.56;36.79
3444;BME280;1736;52.068;6.968;2023-06-10T07:59:52;101121.16;;;25.49;37.36
3444;BME280;1736;52.068;6.968;2023-06-10T08:02:20;101139.34;;;25.42;37.43
3444;BME280;1736;52.068;6.968;2023-06-10T08:04:48;101132.25;;;25.47;37.52
3444;BME280;1736;52.068;6.968;2023-06-10T08:07:15;101132.44;;;25.46;38.21
3444;BME280;1736;52.068;6.968;2023-06-10T08:09:43;101131.63;;;25.45;37.65
3444;BME280;1736;52.068;6.968;2023-06-10T08:12:11;101135.19;;;25.39;37.62
3444;BME280;1736;52.068;6.968;2023-06-10T08:14:39;101143.03;;;25.73;37.08
3444;BME280;1736;52.068;6.968;2023-06-10T08:17:06;101138.47;;;26.11;36.38
3444;BME280;1736;52.068;6.968;2023-06-10T08:19:34;101142.16;;;26.23;36.76
3444;BME280;1736;52.068;6.968;2023-06-10T08:22:01;101134.72;;;26.43;36.55
3444;BME280;1736;52.068;6.968;2023-06-10T08:24:28;101126.91;;;26.22;36.64
3444;BME280;1736;52.068;6.968;2023-06-10T08:26:55;101136.44;;;26.00;36.72
3444;BME280;1736;52.068;6.968;2023-06-10T08:29:22;101125.94;;;26.10;37.21
3444;BME280;1736;52.068;6.968;2023-06-10T08:31:50;101132.09;;;26.30;36.20
3444;BME280;1736;52.068;6.968;2023-06-10T08:34:17;101129.66;;;26.16;37.48
3444;BME280;1736;52.068;6.968;2023-06-10T08:36:43;101137.59;;;26.17;36.85
3444;BME280;1736;52.068;6.968;2023-06-10T08:39:10;101138.88;;;26.46;36.61
3444;BME280;1736;52.068;6.968;2023-06-10T08:41:42;101133.78;;;26.25;35.97
3444;BME280;1736;52.068;6.968;2023-06-10T08:44:12;101132.69;;;26.32;36.62
3444;BME280;1736;52.068;6.968;2023-06-10T08:46:45;101132.84;;;26.37;35.73
3444;BME280;1736;52.068;6.968;2023-06-10T08:49:17;101127.06;;;26.27;36.98
3444;BME280;1736;52.068;6.968;2023-06-10T08:51:47;101134.72;;;26.43;35.77
3444;BME280;1736;52.068;6.968;2023-06-10T08:54:18;101136.25;;;26.64;35.90
3444;BME280;1736;52.068;6.968;2023-06-10T08:56:49;101131.34;;;26.41;35.43
3444;BME280;1736;52.068;6.968;2023-06-10T08:59:16;101129.78;;;26.27;35.72
3444;BME280;1736;52.068;6.968;2023-06-10T09:01:44;101127.38;;;26.13;35.95
3444;BME280;1736;52.068;6.968;2023-06-10T09:04:10;101121.53;;;26.09;36.10
3444;BME280;1736;52.068;6.968;2023-06-10T09:06:39;101113.31;;;26.47;36.19
3444;BME280;1736;52.068;6.968;2023-06-10T09:09:07;101125.06;;;26.47;36.77
3444;BME280;1736;52.068;6.968;2023-06-10T09:11:33;101124.97;;;26.60;36.70
3444;BME280;1736;52.068;6.968;2023-06-10T09:14:01;101122.56;;;26.70;37.09
3444;BME280;1736;52.068;6.968;2023-06-10T09:16:28;101113.38;;;26.40;36.65
3444;BME280;1736;52.068;6.968;2023-06-10T09:18:55;101106.59;;;26.49;37.56
3444;BME280;1736;52.068;6.968;2023-06-10T09:21:22;101113.81;;;26.68;36.71
3444;BME280;1736;52.068;6.968;2023-06-10T09:23:51;101113.75;;;26.99;36.62
3444;BME280;1736;52.068;6.968;2023-06-10T09:26:18;101104.16;;;26.90;35.60
3444;BME280;1736;52.068;6.968;2023-06-10T09:28:48;101117.97;;;27.38;34.65
3444;BME280;1736;52.068;6.968;2023-06-10T09:31:16;101107.28;;;26.94;35.98
3444;BME280;1736;52.068;6.968;2023-06-10T09:33:44;101115.75;;;26.86;37.14
3444;BME280;1736;52.068;6.968;2023-06-10T09:36:11;101106.13;;;26.83;37.32
3444;BME280;1736;52.068;6.968;2023-06-10T09:38:38;101107.22;;;27.00;37.18
3444;BME280;1736;52.068;6.968;2023-06-10T09:41:05;101110.53;;;27.02;37.74
3444;BME280;1736;52.068;6.968;2023-06-10T09:43:39;101118.59;;;27.15;36.00
3444;BME280;1736;52.068;6.968;2023-06-10T09:46:07;101120.59;;;27.26;36.38
3444;BME280;1736;52.068;6.968;2023-06-10T09:48:41;101118.19;;;26.69;37.56
3444;BME280;1736;52.068;6.968;2023-06-10T09:51:09;101114.25;;;26.90;36.97
3444;BME280;1736;52.068;6.968;2023-06-10T09:53:36;101120.06;;;26.93;36.56
3444;BME280;1736;52.068;6.968;2023-06-10T09:56:02;101117.00;;;27.08;37.07
3444;BME280;1736;52.068;6.968;2023-06-10T09:58:38;101124.94;;;27.09;36.16
3444;BME280;1736;52.068;6.968;2023-06-10T10:01:09;101121.63;;;27.07;36.88
3444;BME280;1736;52.068;6.968;2023-06-10T10:03:46;101118.34;;;27.17;36.83
3444;BME280;1736;52.068;6.968;2023-06-10T10:06:14;101120.25;;;27.16;37.10
3444;BME280;1736;52.068;6.968;2023-06-10T10:08:41;101106.38;;;27.24;36.77
3444;BME280;1736;52.068;6.968;2023-06-10T10:11:08;101114.56;;;27.60;36.84
3444;BME280;1736;52.068;6.968;2023-06-10T10:13:37;101104.41;;;27.49;36.54
3444;BME280;1736;52.068;6.968;2023-06-10T10:16:06;101121.66;;;27.43;35.94
3444;BME280;1736;52.068;6.968;2023-06-10T10:18:39;101105.28;;;27.43;36.65
3444;BME280;1736;52.068;6.968;2023-06-10T10:21:11;101097.41;;;27.89;36.10
3444;BME280;1736;52.068;6.968;2023-06-10T10:23:42;101107.69;;;27.87;34.09
3444;BME280;1736;52.068;6.968;2023-06-10T10:26:11;101103.34;;;27.68;32.59
3444;BME280;1736;52.068;6.968;2023-06-10T10:28:41;101095.78;;;27.52;34.64
3444;BME280;1736;52.068;6.968;2023-06-10T10:31:12;101094.31;;;27.68;35.03
3444;BME280;1736;52.068;6.968;2023-06-10T10:33:51;101111.97;;;27.65;35.92
3444;BME280;1736;52.068;6.968;2023-06-10T10:36:19;101099.84;;;27.43;36.20
3444;BME280;1736;52.068;6.968;2023-06-10T10:38:47;101102.19;;;27.58;36.26
3444;BME280;1736;52.068;6.968;2023-06-10T10:41:15;101087.34;;;27.72;35.70
3444;BME280;1736;52.068;6.968;2023-06-10T10:43:43;101096.66;;;27.82;35.30
3444;BME280;1736;52.068;6.968;2023-06-10T10:46:12;101092.69;;;27.78;35.44
3444;BME280;1736;52.068;6.968;2023-06-10T10:48:39;101103.34;;;27.68;34.80
3444;BME280;1736;52.068;6.968;2023-06-10T10:51:06;101087.13;;;27.55;35.67
3444;BME280;1736;52.068;6.968;2023-06-10T10:53:36;101095.41;;;27.96;35.23
3444;BME280;1736;52.068;6.968;2023-06-10T10:56:08;101098.28;;;28.01;35.38
3444;BME280;1736;52.068;6.968;2023-06-10T10:58:34;101097.41;;;27.71;35.18
3444;BME280;1736;52.068;6.968;2023-06-10T11:01:12;101089.63;;;28.04;35.39
3444;BME280;1736;52.068;6.968;2023-06-10T11:03:43;101086.13;;;28.27;34.32
3444;BME280;1736;52.068;6.968;2023-06-10T11:06:13;101094.75;;;28.54;33.84
3444;BME280;1736;52.068;6.968;2023-06-10T11:08:49;101091.81;;;28.67;33.49
3444;BME280;1736;52.068;6.968;2023-06-10T11:11:20;101087.91;;;28.63;33.18
3444;BME280;1736;52.068;6.968;2023-06-10T11:14:06;101085.41;;;28.73;32.84
3444;BME280;1736;52.068;6.968;2023-06-10T11:16:41;101082.78;;;28.55;33.39
3444;BME280;1736;52.068;6.968;2023-06-10T11:19:34;101076.31;;;28.38;33.28
3444;BME280;1736;52.068;6.968;2023-06-10T11:22:02;101076.47;;;28.43;33.80
3444;BME280;1736;52.068;6.968;2023-06-10T11:24:29;101074.72;;;28.60;33.59
3444;BME280;1736;52.068;6.968;2023-06-10T11:27:14;101068.94;;;28.38;33.11
3444;BME280;1736;52.068;6.968;2023-06-10T11:29:55;101075.53;;;28.49;33.03
3444;BME280;1736;52.068;6.968;2023-06-10T11:32:23;101075.19;;;28.27;33.21
3444;BME280;1736;52.068;6.968;2023-06-10T11:34:52;101071.47;;;28.51;33.60
3444;BME280;1736;52.068;6.968;2023-06-10T11:37:19;101074.19;;;28.39;32.66
3444;BME280;1736;52.068;6.968;2023-06-10T11:39:46;101068.78;;;28.63;32.65
3444;BME280;1736;52.068;6.968;2023-06-10T11:42:13;101072.31;;;28.52;31.88
3444;BME280;1736;52.068;6.968;2023-06-10T11:44:48;101074.28;;;28.21;33.00
3444;BME280;1736;52.068;6.968;2023-06-10T11:47:14;101066.44;;;28.36;32.61
3444;BME280;1736;52.068;6.968;2023-06-10T11:49:42;101073.03;;;28.47;33.32
3444;BME280;1736;52.068;6.968;2023-06-10T11:52:09;101072.22;;;28.58;32.72
3444;BME280;1736;52.068;6.968;2023-06-10T11:54:36;101072.56;;;28.62;31.90
3444;BME280;1736;52.068;6.968;2023-06-10T11:57:02;101076.75;;;28.64;31.33
3444;BME280;1736;52.068;6.968;2023-06-10T11:59:30;101067.47;;;28.88;31.27
3444;BME280;1736;52.068;6.968;2023-06-10T12:01:56;101068.19;;;28.84;30.09
3444;BME280;1736;52.068;6.968;2023-06-10T12:04:23;101071.13;;;28.94;29.35
3444;BME280;1736;52.068;6.968;2023-06-10T12:06:53;101071.72;;;28.84;29.09
3444;BME280;1736;52.068;6.968;2023-06-10T12:09:20;101068.31;;;28.89;29.51
3444;BME280;1736;52.068;6.968;2023-06-10T12:11:49;101063.19;;;28.81;29.71
3444;BME280;1736;52.068;6.968;2023-06-10T12:14:52;101062.16;;;29.05;30.26
3444;BME280;1736;52.068;6.968;2023-06-10T12:17:23;101065.00;;;28.87;30.90
3444;BME280;1736;52.068;6.968;2023-06-10T12:19:50;101058.91;;;28.85;31.39
3444;BME280;1736;52.068;6.968;2023-06-10T12:22:18;101045.50;;;28.95;31.22
3444;BME280;1736;52.068;6.968;2023-06-10T12:24:57;101040.50;;;28.69;30.64
3444;BME280;1736;52.068;6.968;2023-06-10T12:27:26;101043.13;;;28.75;31.15
3444;BME280;1736;52.068;6.968;2023-06-10T12:29:55;101039.44;;;28.58;31.94
3444;BME280;1736;52.068;6.968;2023-06-10T12:32:35;101037.16;;;28.90;31.90
3444;BME280;1736;52.068;6.968;2023-06-10T12:35:05;101039.06;;;28.78;31.77
3444;BME280;1736;52.068;6.968;2023-06-10T12:37:34;101038.38;;;28.59;32.90
3444;BME280;1736;52.068;6.968;2023-06-10T12:40:01;101050.94;;;28.49;32.18
3444;BME280;1736;52.068;6.968;2023-06-10T12:42:30;101039.06;;;28.78;31.43
3444;BME280;1736;52.068;6.968;2023-06-10T12:44:58;101037.19;;;28.67;31.44
3444;BME280;1736;52.068;6.968;2023-06-10T12:47:30;101026.38;;;28.72;32.22
3444;BME280;1736;52.068;6.968;2023-06-10T12:49:58;101024.72;;;28.71;31.48
3444;BME280;1736;52.068;6.968;2023-06-10T12:52:25;101033.88;;;28.88;31.58
3444;BME280;1736;52.068;6.968;2023-06-10T12:54:53;101025.78;;;28.81;31.96
3444;BME280;1736;52.068;6.968;2023-06-10T12:57:20;101028.41;;;29.11;32.02
3444;BME280;1736;52.068;6.968;2023-06-10T12:59:46;101038.50;;;28.99;31.52
3444;BME280;1736;52.068;6.968;2023-06-10T13:02:17;101023.31;;;29.03;30.88
3444;BME280;1736;52.068;6.968;2023-06-10T13:04:45;101020.66;;;29.19;31.14
3444;BME280;1736;52.068;6.968;2023-06-10T13:07:11;101026.25;;;29.13;31.15
3444;BME280;1736;52.068;6.968;2023-06-10T13:09:38;101017.69;;;28.98;30.67
3444;BME280;1736;52.068;6.968;2023-06-10T13:12:07;101022.69;;;29.01;30.95
3444;BME280;1736;52.068;6.968;2023-06-10T13:14:35;101005.47;;;29.00;31.31
3444;BME280;1736;52.068;6.968;2023-06-10T13:17:02;101016.41;;;29.12;31.39
3444;BME280;1736;52.068;6.968;2023-06-10T13:19:31;101012.47;;;28.85;32.20
3444;BME280;1736;52.068;6.968;2023-06-10T13:21:57;101018.41;;;28.93;31.70
3444;BME280;1736;52.068;6.968;2023-06-10T13:24:24;101017.81;;;28.91;31.74